Terminal Aerodrome Forecast
Issued by NWS Twin Cities, MN

Home | Current Version | Previous Version | Graphics & Text | Print | Product List | Glossary On
Versions: 1 2 3 4 5 6 7 8 9 10 11 12 13 14 15 16 17 18 19
589
FTUS43 KMPX 071139
TAFEAU
TAF
KEAU 071139Z 0712/0812 20013KT P6SM FEW025 WS010/27040KT
     FM071600 26014G20KT P6SM SCT025 OVC050
     FM072300 27016G23KT 3SM -SHSN OVC025
     FM080400 31016G24KT 2SM -SN BLSN OVC015=

USA.gov is the U.S. government's official web portal to all federal, state and local government web resources and services.